Time;durP1;ratioP1;P1;durP2;ratioP2;P2;SDS_P1;SDS_P2;PMS_P1;PMS_P2;Temp;Humidity;BMP_temperature;BMP_pressure;BME280_temperature;BME280_humidity;BME280_pressure;Samples;Min_cycle;Max_cycle;Signal;HPM_P1;HPM_P2
2024/03/28 00:02:07;;;;;;;8.27;3.67;;;;;;;7.99;100.00;98879.34;5101473;28;20037;-75
2024/03/28 00:04:33;;;;;;;5.68;3.28;;;;;;;7.96;100.00;98879.81;5082080;28;20056;-74
2024/03/28 00:06:59;;;;;;;5.75;3.55;;;;;;;7.97;100.00;98881.44;5083579;28;20032;-74
2024/03/28 00:09:24;;;;;;;8.25;3.50;;;;;;;7.99;100.00;98881.22;5081518;28;20093;-74
2024/03/28 00:11:51;;;;;;;8.43;3.72;;;;;;;7.97;100.00;98864.53;5098332;28;20042;-74
2024/03/28 00:14:17;;;;;;;5.75;3.70;;;;;;;8.04;100.00;98865.25;5100469;28;20092;-74
2024/03/28 00:16:43;;;;;;;5.45;3.53;;;;;;;8.04;100.00;98862.56;5082933;28;20058;-73
2024/03/28 00:19:08;;;;;;;4.72;3.60;;;;;;;8.01;100.00;98863.03;5083279;28;20062;-73
2024/03/28 00:21:35;;;;;;;6.25;3.60;;;;;;;7.89;100.00;98840.78;5100599;28;20035;-75
2024/03/28 00:24:01;;;;;;;5.07;3.63;;;;;;;8.02;100.00;98855.84;5101143;28;20036;-74
2024/03/28 00:26:26;;;;;;;8.32;3.72;;;;;;;7.94;100.00;98862.31;5100504;28;20537;-74
2024/03/28 00:28:52;;;;;;;5.95;4.00;;;;;;;7.92;100.00;98846.50;5098443;28;20086;-73
2024/03/28 00:31:18;;;;;;;6.03;3.80;;;;;;;7.85;100.00;98832.41;5100466;28;20037;-73
2024/03/28 00:33:43;;;;;;;6.82;4.07;;;;;;;7.17;100.00;98718.53;5080868;28;20499;-74
2024/03/28 00:36:08;;;;;;;6.15;4.10;;;;;;;7.84;100.00;98841.47;5101024;28;20043;-74
2024/03/28 00:38:34;;;;;;;6.95;4.10;;;;;;;7.67;100.00;98814.53;5061519;28;20066;-74
2024/03/28 00:41:01;;;;;;;8.07;3.78;;;;;;;7.29;100.00;98754.16;5081397;28;20044;-74
2024/03/28 00:43:27;;;;;;;7.43;3.88;;;;;;;7.69;100.00;98830.38;5098686;28;20556;-74
2024/03/28 00:45:52;;;;;;;6.65;3.63;;;;;;;7.60;100.00;98826.41;5097025;28;20037;-74
2024/03/28 00:48:18;;;;;;;6.47;3.97;;;;;;;7.66;100.00;98828.16;5083152;28;20031;-73
2024/03/28 00:50:54;;;;;;;7.57;4.28;;;;;;;7.62;100.00;98824.31;5082065;28;20402;-73
2024/03/28 00:53:20;;;;;;;7.32;4.40;;;;;;;7.58;100.00;98821.25;5081712;28;20551;-75
2024/03/28 00:55:46;;;;;;;5.28;4.00;;;;;;;7.53;100.00;98811.25;5099098;28;20028;-74
2024/03/28 00:58:15;;;;;;;6.38;4.60;;;;;;;7.51;100.00;98818.66;5077747;28;20364;-74
2024/03/28 01:00:42;;;;;;;7.88;4.20;;;;;;;7.46;100.00;98805.19;5097863;28;20173;-74
2024/03/28 01:03:08;;;;;;;7.22;4.45;;;;;;;7.45;100.00;98813.41;5085261;28;20040;-74
2024/03/28 01:05:34;;;;;;;6.00;4.05;;;;;;;7.44;100.00;98806.44;5085601;28;20032;-74
2024/03/28 01:07:59;;;;;;;6.25;4.28;;;;;;;7.39;100.00;98799.09;5085008;28;20115;-74
2024/03/28 01:10:25;;;;;;;7.35;4.63;;;;;;;7.41;100.00;98798.88;5104307;28;20125;-73
2024/03/28 01:12:50;;;;;;;7.43;4.47;;;;;;;7.37;100.00;98803.03;5066730;28;20086;-73
2024/03/28 01:15:17;;;;;;;9.30;4.20;;;;;;;7.09;100.00;98760.84;5065191;28;20036;-74
2024/03/28 01:17:43;;;;;;;6.70;4.22;;;;;;;7.19;100.00;98787.88;5083106;28;20058;-73
2024/03/28 01:20:09;;;;;;;7.85;4.85;;;;;;;7.20;100.00;98795.66;5065518;28;20437;-74
2024/03/28 01:22:34;;;;;;;7.60;4.35;;;;;;;7.18;100.00;98797.72;5084771;28;20036;-74
2024/03/28 01:24:59;;;;;;;5.60;4.38;;;;;;;6.90;100.00;98754.72;5083957;28;20137;-74
2024/03/28 01:27:25;;;;;;;7.28;4.47;;;;;;;7.08;100.00;98784.06;5063901;28;20102;-74
2024/03/28 01:29:54;;;;;;;7.57;4.72;;;;;;;6.43;100.00;98695.69;5083558;28;20466;-74
2024/03/28 01:32:19;;;;;;;7.15;4.43;;;;;;;6.81;100.00;98772.91;5101246;28;20482;-74
2024/03/28 01:34:45;;;;;;;6.55;4.38;;;;;;;6.89;100.00;98790.50;5082100;28;20047;-74
2024/03/28 01:37:12;;;;;;;5.80;4.30;;;;;;;6.84;100.00;98780.47;5064905;28;20075;-73
2024/03/28 01:39:37;;;;;;;5.82;4.57;;;;;;;6.83;100.00;98797.56;5099703;28;20063;-74
2024/03/28 01:42:02;;;;;;;6.53;4.75;;;;;;;6.82;100.00;98791.41;5099575;28;20399;-74
2024/03/28 01:44:28;;;;;;;8.63;4.68;;;;;;;6.80;100.00;98788.13;5080321;28;20050;-74
2024/03/28 01:46:54;;;;;;;7.28;4.70;;;;;;;6.64;100.00;98755.84;5067409;28;20506;-73
2024/03/28 01:49:20;;;;;;;6.15;4.63;;;;;;;6.64;100.00;98762.00;5086392;28;20090;-74
2024/03/28 01:51:46;;;;;;;7.95;4.50;;;;;;;6.65;100.00;98770.84;5101468;28;20059;-75
2024/03/28 01:54:14;;;;;;;7.30;4.50;;;;;;;6.71;100.00;98784.13;5100212;28;20451;-74
2024/03/28 01:56:41;;;;;;;7.93;4.22;;;;;;;6.69;100.00;98783.56;5096665;28;20044;-74
2024/03/28 01:59:09;;;;;;;7.10;4.57;;;;;;;6.58;100.00;98773.59;5067184;28;20036;-74
2024/03/28 02:01:38;;;;;;;8.60;4.55;;;;;;;6.59;100.00;98786.75;5102292;28;20033;-75
2024/03/28 02:04:07;;;;;;;8.55;4.70;;;;;;;6.57;100.00;98771.97;5081639;28;20036;-75
2024/03/28 02:06:34;;;;;;;6.95;4.72;;;;;;;6.56;100.00;98776.50;5082069;28;20115;-74
2024/03/28 02:09:00;;;;;;;6.75;4.82;;;;;;;6.50;100.00;98769.38;5085836;28;20133;-74
2024/03/28 02:11:25;;;;;;;7.68;4.93;;;;;;;6.24;100.00;98727.72;5083997;28;20062;-74
2024/03/28 02:13:51;;;;;;;6.70;4.53;;;;;;;6.26;100.00;98743.53;5082573;28;20048;-74
2024/03/28 02:16:16;;;;;;;10.07;5.00;;;;;;;6.34;100.00;98761.94;5064590;28;20100;-75
2024/03/28 02:18:42;;;;;;;9.90;4.88;;;;;;;6.10;100.00;98739.59;5081336;28;20044;-74
2024/03/28 02:21:07;;;;;;;10.43;5.22;;;;;;;6.20;100.00;98755.09;5083612;28;20483;-74
2024/03/28 02:23:34;;;;;;;9.45;5.10;;;;;;;6.09;100.00;98754.81;5058822;28;20037;-74
2024/03/28 02:25:59;;;;;;;7.30;4.95;;;;;;;6.02;100.00;98732.66;5097283;28;20031;-74
2024/03/28 02:28:25;;;;;;;7.55;4.97;;;;;;;6.10;100.00;98740.41;5061785;28;20062;-74
2024/03/28 02:30:51;;;;;;;8.07;5.30;;;;;;;5.97;100.00;98723.69;5081367;28;20391;-74
2024/03/28 02:33:16;;;;;;;8.10;5.30;;;;;;;5.84;100.00;98703.25;5065907;28;20039;-75
2024/03/28 02:35:42;;;;;;;6.65;5.05;;;;;;;5.97;100.00;98734.38;5081733;28;20028;-74
2024/03/28 02:38:07;;;;;;;7.97;4.97;;;;;;;5.93;100.00;98733.16;5081930;28;20120;-74
2024/03/28 02:40:33;;;;;;;10.20;5.35;;;;;;;5.89;100.00;98727.41;5077647;28;20045;-74
2024/03/28 02:42:58;;;;;;;10.20;5.13;;;;;;;5.80;100.00;98729.56;5098287;28;20444;-74
2024/03/28 02:45:23;;;;;;;8.00;5.30;;;;;;;5.68;100.00;98706.47;5081533;28;20047;-74
2024/03/28 02:47:49;;;;;;;7.40;5.10;;;;;;;5.69;100.00;98706.25;5061569;28;20505;-73
2024/03/28 02:50:14;;;;;;;6.30;5.05;;;;;;;5.71;100.00;98714.88;5079891;28;20070;-74
2024/03/28 02:52:40;;;;;;;9.70;5.75;;;;;;;5.75;100.00;98726.72;5060651;28;20451;-74
2024/03/28 02:55:06;;;;;;;9.60;5.50;;;;;;;5.75;100.00;98717.91;5060328;28;20113;-73
2024/03/28 02:57:31;;;;;;;7.88;5.75;;;;;;;5.63;100.00;98694.63;5076134;28;20095;-75
2024/03/28 02:59:57;;;;;;;8.38;5.53;;;;;;;5.71;100.00;98714.88;5080223;28;20043;-74
2024/03/28 03:02:23;;;;;;;9.52;5.45;;;;;;;5.72;100.00;98708.47;5080428;28;20494;-74
2024/03/28 03:04:48;;;;;;;12.75;5.30;;;;;;;5.68;100.00;98709.97;5062086;28;20122;-73
2024/03/28 03:07:14;;;;;;;8.25;5.47;;;;;;;5.57;100.00;98695.50;5098656;28;20040;-74
2024/03/28 03:09:41;;;;;;;9.70;5.47;;;;;;;5.49;100.00;98684.28;5098246;28;20103;-74
2024/03/28 03:12:07;;;;;;;7.57;5.53;;;;;;;5.64;100.00;98693.56;5081207;28;20036;-74
2024/03/28 03:14:33;;;;;;;7.90;5.82;;;;;;;5.70;100.00;98697.22;5079504;28;20555;-72
2024/03/28 03:16:59;;;;;;;8.90;5.78;;;;;;;5.71;100.00;98698.03;5096259;28;20043;-75
2024/03/28 03:19:25;;;;;;;8.80;5.75;;;;;;;5.77;100.00;98691.84;5077630;28;20035;-74
2024/03/28 03:21:52;;;;;;;11.60;5.80;;;;;;;5.69;100.00;98684.91;5061335;28;20410;-75
2024/03/28 03:24:20;;;;;;;7.68;5.20;;;;;;;5.71;100.00;98692.72;5075578;28;20032;-74
2024/03/28 03:26:54;;;;;;;9.98;5.93;;;;;;;5.61;100.00;98672.66;5096273;28;20051;-74
2024/03/28 03:34:49;;;;;;;7.88;5.60;;;;;;;5.63;100.00;98683.94;5097185;28;20046;-74
2024/03/28 03:37:21;;;;;;;7.93;5.82;;;;;;;5.61;100.00;98678.00;5072892;28;20127;-74
2024/03/28 03:39:52;;;;;;;9.25;5.88;;;;;;;5.56;100.00;98674.34;5076461;28;20506;-75
2024/03/28 03:42:17;;;;;;;9.40;6.32;;;;;;;5.52;100.00;98673.97;5063395;28;20505;-75
2024/03/28 03:44:43;;;;;;;7.43;5.38;;;;;;;5.38;100.00;98667.94;5097775;28;20466;-75
2024/03/28 03:47:08;;;;;;;9.50;5.68;;;;;;;5.42;100.00;98682.47;5075726;28;20113;-73
2024/03/28 03:49:34;;;;;;;8.93;6.07;;;;;;;5.28;100.00;98653.47;5093336;28;20036;-74
2024/03/28 03:51:59;;;;;;;7.80;6.13;;;;;;;5.33;100.00;98665.13;5061550;28;20043;-74
2024/03/28 03:54:24;;;;;;;9.20;5.50;;;;;;;5.21;100.00;98644.72;5078488;28;20047;-74
2024/03/28 03:56:50;;;;;;;8.93;5.90;;;;;;;5.37;100.00;98671.66;5077770;28;20119;-75
2024/03/28 03:59:16;;;;;;;10.00;6.22;;;;;;;5.33;100.00;98664.28;5057950;28;20047;-75
2024/03/28 04:01:41;;;;;;;9.43;5.55;;;;;;;5.09;100.00;98632.06;5091360;28;20502;-74
2024/03/28 04:04:06;;;;;;;9.73;6.70;;;;;;;5.29;100.00;98673.75;5078077;28;20418;-73
2024/03/28 04:06:32;;;;;;;7.43;5.68;;;;;;;5.30;100.00;98659.41;5057478;28;20094;-74
2024/03/28 04:08:57;;;;;;;8.00;5.70;;;;;;;5.21;100.00;98647.38;5076421;28;20048;-74
2024/03/28 04:11:23;;;;;;;8.93;5.85;;;;;;;5.00;100.00;98614.72;5071416;28;20407;-75
2024/03/28 04:13:48;;;;;;;10.45;6.30;;;;;;;5.09;100.00;98628.59;5058153;28;20036;-75
2024/03/28 04:16:14;;;;;;;10.52;6.72;;;;;;;5.22;100.00;98652.47;5077393;28;20658;-75
2024/03/28 04:18:39;;;;;;;9.35;6.13;;;;;;;5.15;100.00;98651.72;5076847;28;20048;-75
2024/03/28 04:21:04;;;;;;;11.15;5.82;;;;;;;5.16;100.00;98648.00;5073800;28;20039;-75
2024/03/28 04:23:30;;;;;;;11.65;6.32;;;;;;;5.04;100.00;98634.59;5056556;28;20446;-74
2024/03/28 04:25:56;;;;;;;9.48;6.82;;;;;;;4.92;100.00;98615.78;5071567;28;20040;-75
2024/03/28 04:28:22;;;;;;;10.07;6.55;;;;;;;5.12;100.00;98650.31;5067441;28;20399;-75
2024/03/28 04:30:48;;;;;;;10.80;5.82;;;;;;;5.14;100.00;98645.56;5077144;28;20043;-75
2024/03/28 04:33:13;;;;;;;10.32;6.45;;;;;;;5.07;100.00;98630.69;5077817;28;20490;-74
2024/03/28 04:35:40;;;;;;;9.10;6.60;;;;;;;5.00;100.00;98630.72;5059162;28;20040;-75
2024/03/28 04:38:06;;;;;;;9.32;6.25;;;;;;;4.98;100.00;98623.97;5064571;28;20050;-74
2024/03/28 04:40:32;;;;;;;10.93;7.20;;;;;;;5.10;100.00;98644.38;5099406;28;20044;-74
2024/03/28 04:42:57;;;;;;;10.73;6.78;;;;;;;5.05;100.00;98641.53;5081283;28;20261;-75
2024/03/28 04:45:23;;;;;;;10.90;7.30;;;;;;;5.18;100.00;98654.78;5064455;28;20032;-75
2024/03/28 04:47:49;;;;;;;10.40;7.00;;;;;;;5.17;100.00;98655.81;5100813;28;20043;-75
2024/03/28 04:50:15;;;;;;;9.40;6.85;;;;;;;5.19;100.00;98652.91;5100659;28;20067;-74
2024/03/28 04:52:41;;;;;;;12.25;7.07;;;;;;;5.18;100.00;98649.44;5100968;28;20032;-74
2024/03/28 04:55:07;;;;;;;8.85;7.00;;;;;;;5.23;100.00;98648.81;5083012;28;20483;-74
2024/03/28 04:57:33;;;;;;;11.55;6.85;;;;;;;5.10;100.00;98625.72;5100367;28;20032;-74
2024/03/28 04:59:58;;;;;;;11.18;7.10;;;;;;;5.30;100.00;98643.41;5081862;28;20043;-75
2024/03/28 05:02:24;;;;;;;10.88;6.55;;;;;;;5.25;100.00;98648.56;5100774;28;20032;-74
2024/03/28 05:04:49;;;;;;;10.48;7.32;;;;;;;5.32;100.00;98652.81;5081378;28;20028;-72
2024/03/28 05:07:15;;;;;;;11.38;7.40;;;;;;;5.33;100.00;98656.28;5083638;28;20048;-72
2024/03/28 05:09:41;;;;;;;8.73;6.40;;;;;;;5.32;100.00;98638.66;5050683;28;20070;-75
2024/03/28 05:12:07;;;;;;;8.18;6.22;;;;;;;5.32;100.00;98636.00;5067771;28;20124;-77
2024/03/28 05:14:32;;;;;;;8.75;6.55;;;;;;;5.21;100.00;98621.53;5095134;28;20115;-71
2024/03/28 05:16:59;;;;;;;9.15;6.00;;;;;;;5.17;100.00;98609.69;5093399;28;20079;-73
2024/03/28 05:19:25;;;;;;;11.88;6.43;;;;;;;5.25;100.00;98625.38;5070692;28;20047;-71
2024/03/28 05:21:51;;;;;;;13.18;6.68;;;;;;;5.22;100.00;98617.00;5087089;28;20043;-71
2024/03/28 05:24:16;;;;;;;10.02;6.90;;;;;;;5.34;100.00;98623.28;5087822;28;20393;-71
2024/03/28 05:26:42;;;;;;;12.15;7.22;;;;;;;5.39;100.00;98599.41;5086014;28;20399;-74
2024/03/28 05:29:07;;;;;;;9.02;6.53;;;;;;;5.30;100.00;98580.22;5085398;28;20327;-73
2024/03/28 05:31:33;;;;;;;10.45;7.25;;;;;;;5.33;100.00;98595.78;5089427;28;20028;-72
2024/03/28 05:33:58;;;;;;;11.98;6.85;;;;;;;5.33;100.00;98594.94;5088108;28;20071;-72
2024/03/28 05:36:24;;;;;;;9.75;6.60;;;;;;;5.41;100.00;98605.34;5106283;28;20130;-72
2024/03/28 05:38:50;;;;;;;8.85;6.82;;;;;;;5.29;100.00;98604.44;5090441;28;20036;-72
2024/03/28 05:41:16;;;;;;;10.15;6.30;;;;;;;5.30;100.00;98611.41;5086072;28;20036;-71
2024/03/28 05:43:41;;;;;;;8.68;6.55;;;;;;;5.27;100.00;98603.84;5089203;28;20044;-71
2024/03/28 05:46:07;;;;;;;9.88;6.40;;;;;;;5.35;100.00;98603.56;5107591;28;20100;-73
2024/03/28 05:48:32;;;;;;;9.43;6.78;;;;;;;5.28;100.00;98560.97;5089560;28;20040;-72
2024/03/28 05:50:58;;;;;;;11.30;6.20;;;;;;;5.30;100.00;98582.09;5071650;28;20430;-71
2024/03/28 05:53:23;;;;;;;10.88;7.13;;;;;;;5.28;100.00;98570.81;5067291;28;20094;-71
2024/03/28 05:55:48;;;;;;;10.93;6.50;;;;;;;5.31;100.00;98570.38;5083398;28;20047;-71
2024/03/28 05:58:14;;;;;;;11.00;6.80;;;;;;;5.37;100.00;98566.84;5081860;28;20063;-71
2024/03/28 06:00:39;;;;;;;10.02;5.88;;;;;;;5.34;100.00;98569.94;5064927;28;20037;-71
2024/03/28 06:03:05;;;;;;;11.48;6.32;;;;;;;5.24;100.00;98551.78;5084468;28;20394;-71
2024/03/28 06:05:31;;;;;;;11.85;6.65;;;;;;;5.31;100.00;98559.72;5063738;28;20067;-70
2024/03/28 06:07:57;;;;;;;9.45;6.82;;;;;;;5.25;100.00;98550.72;5080439;28;20032;-71
2024/03/28 06:10:22;;;;;;;10.55;6.57;;;;;;;5.42;100.00;98556.31;5075577;28;20037;-70
2024/03/28 06:12:48;;;;;;;11.23;6.70;;;;;;;5.53;100.00;98568.94;5097292;28;20032;-70
2024/03/28 06:15:13;;;;;;;10.75;6.90;;;;;;;5.54;100.00;98559.06;5083055;28;20540;-71
2024/03/28 06:17:39;;;;;;;10.65;5.95;;;;;;;5.45;100.00;98539.88;5094868;28;20036;-71
2024/03/28 06:20:05;;;;;;;12.98;6.45;;;;;;;5.71;100.00;98557.44;5027394;28;20048;-72
2024/03/28 06:22:30;;;;;;;12.43;6.78;;;;;;;5.70;100.00;98555.00;5071546;28;20086;-73
2024/03/28 06:24:56;;;;;;;10.88;6.07;;;;;;;5.74;100.00;98549.00;5073555;28;20470;-70
2024/03/28 06:27:22;;;;;;;11.02;6.40;;;;;;;5.69;100.00;98535.47;5040632;28;20057;-71
2024/03/28 06:29:50;;;;;;;9.93;6.30;;;;;;;5.82;100.00;98543.34;5056755;28;20040;-70
2024/03/28 06:32:24;;;;;;;12.52;6.82;;;;;;;5.83;100.00;98522.81;5056609;28;20380;-71
2024/03/28 06:34:58;;;;;;;11.07;6.32;;;;;;;6.04;100.00;98540.25;5042915;28;20047;-71
2024/03/28 06:37:25;;;;;;;12.65;6.47;;;;;;;6.04;100.00;98510.88;5052911;28;20321;-71
2024/03/28 06:39:51;;;;;;;10.85;6.40;;;;;;;6.21;100.00;98522.53;5043297;28;20044;-71
2024/03/28 06:42:17;;;;;;;10.68;6.20;;;;;;;6.23;100.00;98527.66;5041479;28;20032;-70
2024/03/28 06:44:52;;;;;;;11.18;6.47;;;;;;;6.09;100.00;98484.28;5019372;28;20104;-71
2024/03/28 06:47:18;;;;;;;12.82;6.15;;;;;;;6.32;100.00;98507.59;5036489;28;20526;-71
2024/03/28 06:49:43;;;;;;;11.27;6.10;;;;;;;6.48;100.00;98508.81;5035909;28;20041;-71
2024/03/28 06:52:08;;;;;;;12.55;6.45;;;;;;;6.52;100.00;98502.78;5053840;28;20093;-72
2024/03/28 06:54:34;;;;;;;8.70;6.43;;;;;;;6.53;100.00;98506.28;5053491;28;20041;-71
2024/03/28 06:57:00;;;;;;;13.23;6.03;;;;;;;6.57;100.00;98507.44;5034895;28;20095;-72
2024/03/28 06:59:25;;;;;;;12.57;6.57;;;;;;;6.64;100.00;98504.66;5034701;28;20048;-73
2024/03/28 07:01:51;;;;;;;8.38;5.78;;;;;;;6.77;100.00;98507.13;5036340;28;20068;-72
2024/03/28 07:04:16;;;;;;;11.52;6.75;;;;;;;6.85;100.00;98500.59;5053319;28;20029;-72
2024/03/28 07:06:42;;;;;;;10.45;6.45;;;;;;;6.94;100.00;98504.56;5054306;28;20091;-72
2024/03/28 07:09:08;;;;;;;10.45;6.32;;;;;;;6.99;100.00;98481.44;5034986;28;20041;-73
2024/03/28 07:11:33;;;;;;;10.68;6.43;;;;;;;7.15;100.00;98481.78;5018425;28;20064;-72
2024/03/28 07:13:59;;;;;;;9.35;6.32;;;;;;;7.20;100.00;98482.72;5031598;28;20503;-72
2024/03/28 07:16:25;;;;;;;9.57;5.85;;;;;;;7.07;100.00;98457.03;5013343;28;20052;-73
2024/03/28 07:18:53;;;;;;;12.07;6.13;;;;;;;7.22;100.00;98479.81;5034939;28;20036;-72
2024/03/28 07:21:19;;;;;;;9.15;5.95;;;;;;;7.19;100.00;98462.38;5050605;28;20426;-73
2024/03/28 07:23:45;;;;;;;10.15;6.28;;;;;;;7.29;100.00;98464.44;5053089;28;20029;-72
2024/03/28 07:26:11;;;;;;;12.77;6.10;;;;;;;7.32;100.00;98460.47;5058995;28;20443;-72
2024/03/28 07:28:36;;;;;;;11.10;6.03;;;;;;;7.32;100.00;98452.44;5076026;28;20032;-73
2024/03/28 07:31:02;;;;;;;13.43;6.70;;;;;;;7.35;100.00;98457.31;5092615;28;20498;-73
2024/03/28 07:33:28;;;;;;;11.23;6.43;;;;;;;7.43;100.00;98456.97;5072556;28;20491;-72
2024/03/28 07:35:53;;;;;;;8.48;5.75;;;;;;;7.43;100.00;98448.94;5073226;28;20040;-72
2024/03/28 07:38:19;;;;;;;12.50;6.05;;;;;;;7.44;100.00;98446.03;5040065;28;20542;-72
2024/03/28 07:40:48;;;;;;;11.52;6.22;;;;;;;7.57;100.00;98446.81;5073374;28;20036;-72
2024/03/28 07:43:15;;;;;;;9.23;6.30;;;;;;;7.66;100.00;98442.72;5057917;28;20039;-72
2024/03/28 07:45:42;;;;;;;8.98;5.97;;;;;;;7.72;100.00;98441.78;5063492;28;20037;-72
2024/03/28 07:48:08;;;;;;;9.30;5.95;;;;;;;7.87;100.00;98446.59;5053034;28;20033;-73
2024/03/28 07:50:34;;;;;;;9.40;5.38;;;;;;;7.69;100.00;98405.56;5056487;28;20032;-73
2024/03/28 07:52:59;;;;;;;8.00;5.65;;;;;;;7.88;100.00;98419.59;5061259;28;20033;-72
2024/03/28 07:55:25;;;;;;;10.23;6.32;;;;;;;7.89;100.00;98402.47;5055311;28;20154;-72
2024/03/28 07:57:51;;;;;;;11.75;5.78;;;;;;;8.12;100.00;98431.00;5055724;28;20479;-72
2024/03/28 08:00:17;;;;;;;11.52;5.90;;;;;;;8.12;100.00;98424.81;5055007;28;20893;-73
2024/03/28 08:02:45;;;;;;;13.85;6.40;;;;;;;8.16;100.00;98412.56;5072699;28;20421;-73
2024/03/28 08:05:15;;;;;;;9.40;5.97;;;;;;;8.05;100.00;98381.31;5073105;28;20056;-72
2024/03/28 08:07:41;;;;;;;7.45;5.82;;;;;;;8.10;100.00;98378.72;5056527;28;20070;-72
2024/03/28 08:10:09;;;;;;;11.82;6.05;;;;;;;8.04;100.00;98368.97;5057851;28;20127;-72
2024/03/28 08:12:35;;;;;;;12.38;6.15;;;;;;;8.14;100.00;98388.69;5079373;28;20021;-73
2024/03/28 08:15:02;;;;;;;9.20;5.70;;;;;;;8.28;100.00;98391.88;5079260;28;20043;-74
2024/03/28 08:17:30;;;;;;;9.98;5.50;;;;;;;8.18;100.00;98381.00;5077547;28;20036;-73
2024/03/28 08:19:55;;;;;;;10.80;5.75;;;;;;;7.89;100.00;98364.97;5062606;28;20502;-73
2024/03/28 08:22:21;;;;;;;15.43;6.40;;;;;;;7.71;100.00;98335.72;5064941;28;20094;-73
2024/03/28 08:24:50;;;;;;;15.73;5.50;;;;;;;8.06;100.00;98382.94;5080749;28;20029;-73
2024/03/28 08:27:15;;;;;;;8.93;5.40;;;;;;;7.91;100.00;98352.16;5078675;28;20110;-73
2024/03/28 08:29:41;;;;;;;11.82;5.53;;;;;;;8.04;100.00;98371.63;5079265;28;20036;-73
2024/03/28 08:32:06;;;;;;;9.80;5.70;;;;;;;8.10;100.00;98384.88;5076982;28;20035;-72
2024/03/28 08:34:32;;;;;;;9.25;5.40;;;;;;;8.00;100.00;98385.50;5059372;28;20047;-72
2024/03/28 08:36:58;;;;;;;7.60;5.13;;;;;;;8.04;100.00;98382.34;5022390;28;20045;-72
2024/03/28 08:39:24;;;;;;;7.85;5.22;;;;;;;7.91;100.00;98357.53;5076055;28;20368;-73
2024/03/28 08:41:53;;;;;;;8.93;5.25;;;;;;;8.20;100.00;98373.50;5059989;28;20465;-72
2024/03/28 08:44:22;;;;;;;8.90;6.00;;;;;;;8.23;100.00;98357.75;5077976;28;20064;-72
2024/03/28 08:46:47;;;;;;;6.85;5.05;;;;;;;8.12;100.00;98355.19;5062873;28;20048;-72
2024/03/28 08:49:16;;;;;;;13.68;5.60;;;;;;;7.91;100.00;98320.03;5059455;28;20089;-72
2024/03/28 08:51:42;;;;;;;8.45;5.32;;;;;;;8.19;100.00;98351.28;5042091;28;20025;-73
2024/03/28 08:54:12;;;;;;;10.27;5.30;;;;;;;8.30;100.00;98356.78;5066102;28;20028;-72
2024/03/28 08:56:38;;;;;;;7.35;5.60;;;;;;;8.29;100.00;98339.09;5056611;28;20089;-72
2024/03/28 08:59:03;;;;;;;9.25;5.20;;;;;;;8.38;100.00;98351.06;5054390;28;20040;-73
2024/03/28 09:01:30;;;;;;;8.40;5.43;;;;;;;8.37;100.00;98344.84;5075069;28;20045;-72
2024/03/28 09:03:56;;;;;;;7.65;4.97;;;;;;;8.41;100.00;98346.03;5074618;28;20047;-73
2024/03/28 09:06:22;;;;;;;9.07;5.18;;;;;;;8.41;100.00;98321.06;5039445;28;20037;-72
2024/03/28 09:08:47;;;;;;;8.32;5.45;;;;;;;8.32;100.00;98312.63;5067217;28;20328;-72
2024/03/28 09:11:15;;;;;;;7.22;5.18;;;;;;;8.45;100.00;98332.94;5062818;28;20042;-73
2024/03/28 09:13:41;;;;;;;9.68;4.82;;;;;;;8.50;100.00;98324.16;5059589;28;20037;-73
2024/03/28 09:16:09;;;;;;;10.15;5.65;;;;;;;8.58;100.00;98329.94;5052638;28;21151;-73
2024/03/28 09:18:35;;;;;;;8.20;5.07;;;;;;;8.55;100.00;98311.66;5056371;28;20110;-72
2024/03/28 09:21:08;;;;;;;10.93;5.47;;;;;;;8.68;100.00;98324.69;5064979;28;20032;-73
2024/03/28 09:23:33;;;;;;;10.38;5.68;;;;;;;8.51;100.00;98325.78;5070184;28;20056;-72
2024/03/28 09:26:02;;;;;;;8.50;5.18;;;;;;;8.34;100.00;98307.00;5055566;28;20126;-73
2024/03/28 09:28:28;;;;;;;8.63;4.97;;;;;;;8.50;100.00;98319.59;5054622;28;20131;-72
2024/03/28 09:30:54;;;;;;;12.38;5.57;;;;;;;8.33;100.00;98274.06;5075326;28;20032;-72
2024/03/28 09:33:19;;;;;;;8.00;5.30;;;;;;;8.59;100.00;98302.06;5059570;28;20059;-73
2024/03/28 09:35:46;;;;;;;10.10;5.15;;;;;;;8.32;100.00;98263.59;5042846;28;20045;-72
2024/03/28 09:38:12;;;;;;;8.35;4.80;;;;;;;8.40;100.00;98257.84;5058282;28;20036;-72
2024/03/28 09:40:54;;;;;;;8.13;5.20;;;;;;;8.57;100.00;98292.63;5042599;28;20059;-72
2024/03/28 09:43:19;;;;;;;9.93;5.10;;;;;;;8.61;100.00;98302.63;5078818;28;20035;-72
2024/03/28 09:45:46;;;;;;;8.25;5.68;;;;;;;8.35;100.00;98255.88;5077990;28;20033;-72
2024/03/28 09:48:15;;;;;;;10.38;5.45;;;;;;;8.62;100.00;98290.84;5058600;28;20047;-72
2024/03/28 09:50:42;;;;;;;8.15;5.18;;;;;;;8.72;100.00;98284.81;5035448;28;20499;-72
2024/03/28 09:53:10;;;;;;;9.25;5.72;;;;;;;8.73;100.00;98291.78;5055814;28;20043;-72
2024/03/28 09:55:39;;;;;;;10.05;5.90;;;;;;;8.77;100.00;98295.56;5074411;28;20036;-73
2024/03/28 09:58:05;;;;;;;9.05;5.00;;;;;;;8.62;100.00;98287.34;5061509;28;20036;-73
2024/03/28 10:00:31;;;;;;;11.90;5.53;;;;;;;8.80;100.00;98294.28;5036118;28;20132;-72
2024/03/28 10:03:02;;;;;;;9.57;5.13;;;;;;;8.77;100.00;98284.84;5056475;28;20055;-73
2024/03/28 10:05:29;;;;;;;7.72;4.78;;;;;;;8.82;100.00;98278.75;5075335;28;20086;-72
2024/03/28 10:07:55;;;;;;;9.95;5.72;;;;;;;8.75;100.00;98280.81;5061598;28;20040;-72
2024/03/28 10:10:22;;;;;;;8.10;4.95;;;;;;;8.61;100.00;98250.88;5057176;28;20028;-72
2024/03/28 10:12:52;;;;;;;10.70;5.40;;;;;;;8.78;100.00;98281.13;5074511;28;20028;-72
2024/03/28 10:15:18;;;;;;;8.50;5.05;;;;;;;8.51;100.00;98259.59;5076718;28;20521;-72
2024/03/28 10:17:43;;;;;;;10.38;5.10;;;;;;;8.66;100.00;98267.03;5060274;28;20037;-72
2024/03/28 10:20:11;;;;;;;8.35;5.80;;;;;;;8.70;100.00;98266.25;5052722;28;20528;-72
2024/03/28 10:22:43;;;;;;;9.40;5.25;;;;;;;8.46;100.00;98244.25;5072297;28;20509;-72
2024/03/28 10:25:23;;;;;;;7.22;4.80;;;;;;;8.56;100.00;98264.22;5072911;28;20048;-72
2024/03/28 10:27:49;;;;;;;8.63;5.00;;;;;;;8.61;100.00;98265.09;5038793;28;20049;-73
2024/03/28 10:30:25;;;;;;;9.40;5.50;;;;;;;8.60;100.00;98260.78;5075225;28;20036;-72
2024/03/28 10:33:04;;;;;;;11.45;5.53;;;;;;;8.61;100.00;98259.75;5045827;28;20036;-72
2024/03/28 10:35:31;;;;;;;9.63;5.40;;;;;;;8.44;100.00;98230.31;5053070;28;20040;-72
2024/03/28 10:38:04;;;;;;;8.82;5.13;;;;;;;8.66;100.00;98253.63;5040545;28;20116;-71
2024/03/28 10:40:32;;;;;;;10.60;5.72;;;;;;;8.52;100.00;98212.97;5059602;28;20029;-72
2024/03/28 10:43:02;;;;;;;12.95;5.20;;;;;;;8.67;100.00;98239.94;5044086;28;20564;-72
2024/03/28 10:45:32;;;;;;;10.60;6.07;;;;;;;8.76;100.00;98231.50;5060907;28;20057;-71
2024/03/28 10:47:59;;;;;;;10.90;5.45;;;;;;;8.81;100.00;98218.16;5016116;28;20128;-71
2024/03/28 10:50:35;;;;;;;9.10;5.15;;;;;;;8.97;100.00;98227.97;5070500;28;20451;-71
2024/03/28 10:53:06;;;;;;;11.38;5.60;;;;;;;8.98;100.00;98220.75;5074969;28;20126;-71
2024/03/28 10:55:37;;;;;;;12.93;5.40;;;;;;;8.98;100.00;98218.06;5057626;28;20044;-72
2024/03/28 10:58:04;;;;;;;8.98;5.03;;;;;;;8.93;100.00;98200.84;5057634;28;20075;-71
2024/03/28 11:00:30;;;;;;;7.25;4.95;;;;;;;8.99;100.00;98214.31;5064752;28;20588;-70
2024/03/28 11:02:56;;;;;;;8.68;5.05;;;;;;;8.91;100.00;98172.69;5034211;28;20029;-71
2024/03/28 11:05:24;;;;;;;11.07;6.00;;;;;;;9.10;100.00;98210.66;5037885;28;20044;-71
2024/03/28 11:07:50;;;;;;;10.30;4.80;;;;;;;9.11;100.00;98204.25;5056101;28;20033;-72
2024/03/28 11:10:15;;;;;;;10.23;4.70;;;;;;;8.75;100.00;98138.72;5038472;28;20032;-71
2024/03/28 11:12:41;;;;;;;7.18;4.85;;;;;;;9.13;100.00;98204.78;5037460;28;20377;-71
2024/03/28 11:15:09;;;;;;;12.13;5.15;;;;;;;9.20;100.00;98202.72;5036619;28;20041;-72
2024/03/28 11:17:41;;;;;;;9.25;4.93;;;;;;;9.04;100.00;98174.94;5019882;28;20041;-71
2024/03/28 11:20:09;;;;;;;11.02;4.75;;;;;;;9.16;100.00;98189.00;5035165;28;20036;-71
2024/03/28 11:22:35;;;;;;;10.13;5.07;;;;;;;9.28;100.00;98193.41;5050337;28;20080;-72
2024/03/28 11:25:01;;;;;;;8.65;4.55;;;;;;;9.28;100.00;98180.81;5034726;28;20041;-72
2024/03/28 11:27:26;;;;;;;10.57;4.85;;;;;;;9.34;100.00;98187.03;5031990;28;20057;-72
2024/03/28 11:30:04;;;;;;;8.82;4.90;;;;;;;9.06;100.00;98147.88;5048317;28;20124;-72
2024/03/28 11:32:29;;;;;;;8.82;4.95;;;;;;;9.25;100.00;98173.25;5032899;28;20029;-71